Time;durP1;ratioP1;P1;durP2;ratioP2;P2;SDS_P1;SDS_P2;PMS_P1;PMS_P2;Temp;Humidity;BMP_temperature;BMP_pressure;BME280_temperature;BME280_humidity;BME280_pressure;Samples;Min_cycle;Max_cycle;Signal;HPM_P1;HPM_P2
2022/09/23 00:01:09;;;;;;;;;9.00;9.00;;;;;;;;4922626;28;45256;-70
2022/09/23 00:03:36;;;;;;;;;8.67;6.67;;;;;;;;4922658;28;45299;-70
2022/09/23 00:06:03;;;;;;;;;8.33;6.00;;;;;;;;4922214;28;46408;-70
2022/09/23 00:08:28;;;;;;;;;10.67;7.00;;;;;;;;4922259;28;45401;-70
2022/09/23 00:10:54;;;;;;;;;9.00;6.00;;;;;;;;4922126;28;45576;-70
2022/09/23 00:13:20;;;;;;;;;14.33;9.67;;;;;;;;4922564;28;45459;-70
2022/09/23 00:15:45;;;;;;;;;8.67;7.67;;;;;;;;4922002;28;46451;-71
2022/09/23 00:18:10;;;;;;;;;8.00;7.67;;;;;;;;4922162;28;45406;-70
2022/09/23 00:20:36;;;;;;;;;11.00;8.00;;;;;;;;4922367;28;45440;-70
2022/09/23 00:23:01;;;;;;;;;7.33;6.00;;;;;;;;4921980;28;45309;-70
2022/09/23 00:25:28;;;;;;;;;1.00;0.00;;;;;;;;4922240;28;45655;-70
2022/09/23 00:27:53;;;;;;;;;8.33;8.33;;;;;;;;4921906;28;45424;-70
2022/09/23 00:30:19;;;;;;;;;9.00;8.67;;;;;;;;4922018;28;45418;-70
2022/09/23 00:32:44;;;;;;;;;11.67;8.67;;;;;;;;4922316;28;45367;-70
2022/09/23 00:35:09;;;;;;;;;10.33;9.67;;;;;;;;4921737;28;46086;-70
2022/09/23 00:37:34;;;;;;;;;9.00;9.00;;;;;;;;4922107;28;45220;-70
2022/09/23 00:40:00;;;;;;;;;10.00;9.00;;;;;;;;4922035;28;45311;-69
2022/09/23 00:42:25;;;;;;;;;8.00;7.67;;;;;;;;4922035;28;45374;-70
2022/09/23 00:44:58;;;;;;;;;10.00;9.00;;;;;;;;4921690;28;46571;-70
2022/09/23 00:47:30;;;;;;;;;10.00;8.00;;;;;;;;4921298;28;45373;-70
2022/09/23 00:50:02;;;;;;;;;8.67;8.67;;;;;;;;4921890;28;45296;-70
2022/09/23 00:52:28;;;;;;;;;12.00;8.67;;;;;;;;4922015;28;45370;-70
2022/09/23 00:54:55;;;;;;;;;8.33;8.33;;;;;;;;4921556;28;46419;-70
2022/09/23 00:57:22;;;;;;;;;8.67;8.00;;;;;;;;4921436;28;45254;-70
2022/09/23 00:59:49;;;;;;;;;10.00;8.00;;;;;;;;4921691;28;45437;-69
2022/09/23 01:02:15;;;;;;;;;9.67;8.00;;;;;;;;4920866;28;45397;-70
2022/09/23 01:04:41;;;;;;;;;10.33;8.67;;;;;;;;4921143;28;46057;-70
2022/09/23 01:07:06;;;;;;;;;10.00;8.00;;;;;;;;4921064;28;45445;-70
2022/09/23 01:09:31;;;;;;;;;10.00;9.67;;;;;;;;4921551;28;45507;-70
2022/09/23 01:12:17;;;;;;;;;9.00;8.67;;;;;;;;4921715;28;45424;-70
2022/09/23 01:14:55;;;;;;;;;8.00;8.00;;;;;;;;4825174;29;46343;-70
2022/09/23 01:17:20;;;;;;;;;8.67;7.67;;;;;;;;4825037;29;45541;-70
2022/09/23 01:20:04;;;;;;;;;11.00;8.33;;;;;;;;4825493;29;45556;-70
2022/09/23 01:22:43;;;;;;;;;9.00;9.00;;;;;;;;4825276;29;45331;-69
2022/09/23 01:25:12;;;;;;;;;12.00;10.00;;;;;;;;4825170;29;46826;-70
2022/09/23 01:27:46;;;;;;;;;12.67;10.33;;;;;;;;4825090;29;45372;-69
2022/09/23 01:30:17;;;;;;;;;7.33;7.33;;;;;;;;4825175;29;45439;-70
2022/09/23 01:32:55;;;;;;;;;10.00;9.33;;;;;;;;4825213;29;45576;-70
2022/09/23 01:35:38;;;;;;;;;14.33;12.00;;;;;;;;4825245;29;45608;-70
2022/09/23 01:38:23;;;;;;;;;10.00;10.00;;;;;;;;4825331;29;45463;-70
2022/09/23 01:40:58;;;;;;;;;9.00;9.00;;;;;;;;4825165;29;45964;-70
2022/09/23 01:43:45;;;;;;;;;8.33;8.33;;;;;;;;4825165;29;45455;-70
2022/09/23 01:46:19;;;;;;;;;9.00;8.33;;;;;;;;4824647;29;46654;-70
2022/09/23 01:48:54;;;;;;;;;10.33;10.33;;;;;;;;4825016;29;45387;-70
2022/09/23 01:51:25;;;;;;;;;8.33;8.00;;;;;;;;4847516;29;45331;-70
2022/09/23 01:53:55;;;;;;;;;8.00;8.00;;;;;;;;4901956;29;45483;-70
2022/09/23 01:56:36;;;;;;;;;8.67;8.33;;;;;;;;4901191;29;45687;-70
2022/09/23 01:59:09;;;;;;;;;12.33;10.33;;;;;;;;4901563;29;45360;-70
2022/09/23 02:01:38;;;;;;;;;12.00;10.00;;;;;;;;4901707;29;45435;-70
2022/09/23 02:04:10;;;;;;;;;8.67;7.00;;;;;;;;4901941;29;45508;-70
2022/09/23 02:06:40;;;;;;;;;8.00;7.00;;;;;;;;4901221;29;46512;-69
2022/09/23 02:09:15;;;;;;;;;13.00;9.33;;;;;;;;4901618;29;45372;-70
2022/09/23 02:11:44;;;;;;;;;10.00;8.67;;;;;;;;4901804;29;45679;-70
2022/09/23 02:14:30;;;;;;;;;8.67;7.67;;;;;;;;4901614;29;45252;-70
2022/09/23 02:16:59;;;;;;;;;8.00;7.67;;;;;;;;4900806;29;46563;-70
2022/09/23 02:19:27;;;;;;;;;8.33;8.33;;;;;;;;4901621;29;45306;-70
2022/09/23 02:21:57;;;;;;;;;8.00;8.00;;;;;;;;4901683;29;45394;-70
2022/09/23 02:24:36;;;;;;;;;10.00;9.33;;;;;;;;4919294;28;45337;-70
2022/09/23 02:27:22;;;;;;;;;12.67;11.00;;;;;;;;4919886;28;47926;-70
2022/09/23 02:29:56;;;;;;;;;11.00;10.00;;;;;;;;4920072;28;45399;-70
2022/09/23 02:32:27;;;;;;;;;8.67;8.67;;;;;;;;4920308;28;45732;-70
2022/09/23 02:35:02;;;;;;;;;7.67;7.67;;;;;;;;4920340;28;45380;-70
2022/09/23 02:37:47;;;;;;;;;10.33;10.33;;;;;;;;4919949;28;46785;-70
2022/09/23 02:40:18;;;;;;;;;12.00;11.00;;;;;;;;4920035;28;45383;-70
2022/09/23 02:42:43;;;;;;;;;12.33;11.00;;;;;;;;4920184;28;45423;-70
2022/09/23 02:45:09;;;;;;;;;10.67;10.67;;;;;;;;4920263;28;45464;-70
2022/09/23 02:47:36;;;;;;;;;11.33;10.33;;;;;;;;4919686;28;47321;-70
2022/09/23 02:50:01;;;;;;;;;8.67;8.67;;;;;;;;4919930;28;45398;-70
2022/09/23 02:52:27;;;;;;;;;10.33;9.33;;;;;;;;4920054;28;45418;-70
2022/09/23 02:54:52;;;;;;;;;9.67;9.67;;;;;;;;4920174;28;45441;-70
2022/09/23 02:57:18;;;;;;;;;12.00;8.67;;;;;;;;4919829;28;45375;-70
2022/09/23 02:59:45;;;;;;;;;9.67;8.33;;;;;;;;4919679;28;45603;-70
2022/09/23 03:02:48;;;;;;;;;8.67;8.67;;;;;;;;4917169;28;45547;-68
2022/09/23 03:05:13;;;;;;;;;13.67;10.67;;;;;;;;4835776;29;45492;-68
2022/09/23 03:07:41;;;;;;;;;11.33;11.00;;;;;;;;4839839;29;46520;-68
2022/09/23 03:10:29;;;;;;;;;11.67;10.00;;;;;;;;4837436;29;45446;-68
2022/09/23 03:13:13;;;;;;;;;11.00;9.00;;;;;;;;4841051;29;45462;-68
2022/09/23 03:15:51;;;;;;;;;9.67;9.00;;;;;;;;4843512;29;45389;-68
2022/09/23 03:18:19;;;;;;;;;12.00;12.00;;;;;;;;4843099;29;46350;-68
2022/09/23 03:20:49;;;;;;;;;10.67;9.67;;;;;;;;4840443;29;45491;-68
2022/09/23 03:23:17;;;;;;;;;11.67;11.67;;;;;;;;4834319;29;45726;-68
2022/09/23 03:25:44;;;;;;;;;14.00;11.67;;;;;;;;4825632;29;45406;-67
2022/09/23 03:28:11;;;;;;;;;13.00;11.00;;;;;;;;4825234;29;46982;-68
2022/09/23 03:30:38;;;;;;;;;16.33;14.00;;;;;;;;4825098;29;45491;-68
2022/09/23 03:33:04;;;;;;;;;12.00;12.00;;;;;;;;4817046;29;45646;-69
2022/09/23 03:35:32;;;;;;;;;13.33;12.00;;;;;;;;4826104;29;45354;-69
2022/09/23 03:38:05;;;;;;;;;16.33;12.33;;;;;;;;4825588;29;46552;-68
2022/09/23 03:40:42;;;;;;;;;21.00;20.00;;;;;;;;4899842;29;45449;-68
2022/09/23 03:43:08;;;;;;;;;11.67;11.00;;;;;;;;4903640;29;45364;-68
2022/09/23 03:45:33;;;;;;;;;13.67;13.33;;;;;;;;4903766;29;45467;-69
2022/09/23 03:47:58;;;;;;;;;18.33;15.67;;;;;;;;4903394;29;46079;-70
2022/09/23 03:50:30;;;;;;;;;13.00;12.00;;;;;;;;4903528;29;45239;-66
2022/09/23 03:52:55;;;;;;;;;12.67;12.67;;;;;;;;4903335;29;45610;-66
2022/09/23 03:55:20;;;;;;;;;16.00;13.00;;;;;;;;4903695;29;45434;-66
2022/09/23 03:57:46;;;;;;;;;18.33;16.00;;;;;;;;4902824;29;46244;-66
2022/09/23 04:00:12;;;;;;;;;13.00;11.33;;;;;;;;4903309;29;46041;-66
2022/09/23 04:02:38;;;;;;;;;11.33;11.33;;;;;;;;4903358;29;45302;-66
2022/09/23 04:05:03;;;;;;;;;14.67;13.33;;;;;;;;4903434;29;45591;-67
2022/09/23 04:07:28;;;;;;;;;12.33;11.00;;;;;;;;4903004;29;45447;-67
2022/09/23 04:09:54;;;;;;;;;12.67;12.33;;;;;;;;4903340;28;45352;-67
2022/09/23 04:12:19;;;;;;;;;15.67;15.67;;;;;;;;4902552;28;45403;-67
2022/09/23 04:14:45;;;;;;;;;13.67;12.33;;;;;;;;4903474;29;45203;-67
2022/09/23 04:17:10;;;;;;;;;13.67;13.67;;;;;;;;4902691;29;45523;-66
2022/09/23 04:19:36;;;;;;;;;16.00;13.00;;;;;;;;4902797;29;45445;-66
2022/09/23 04:22:01;;;;;;;;;14.33;12.67;;;;;;;;4902701;29;45261;-66
2022/09/23 04:24:27;;;;;;;;;17.33;15.00;;;;;;;;4921699;28;45321;-66
2022/09/23 04:26:53;;;;;;;;;13.00;9.67;;;;;;;;4921844;28;46355;-67
2022/09/23 04:29:19;;;;;;;;;13.00;13.00;;;;;;;;4921997;28;45264;-67
2022/09/23 04:31:44;;;;;;;;;12.67;12.00;;;;;;;;4921673;28;45442;-67
2022/09/23 04:34:10;;;;;;;;;11.33;11.00;;;;;;;;4921794;28;45286;-67
2022/09/23 04:36:35;;;;;;;;;11.33;10.33;;;;;;;;4921977;28;45277;-67
2022/09/23 04:39:00;;;;;;;;;10.67;10.00;;;;;;;;4921763;28;45443;-67
2022/09/23 04:41:25;;;;;;;;;10.00;9.00;;;;;;;;4921570;28;45462;-68
2022/09/23 04:43:51;;;;;;;;;15.00;15.00;;;;;;;;4922292;28;45393;-68
2022/09/23 04:46:16;;;;;;;;;12.33;12.33;;;;;;;;4921383;28;45947;-68
2022/09/23 04:48:41;;;;;;;;;14.33;12.00;;;;;;;;4921650;28;45318;-64
2022/09/23 04:51:08;;;;;;;;;9.33;9.33;;;;;;;;4921673;28;45458;-65
2022/09/23 04:53:36;;;;;;;;;14.67;11.00;;;;;;;;4917609;28;45419;-65
2022/09/23 04:56:15;;;;;;;;;13.67;9.67;;;;;;;;4902728;29;46592;-65
2022/09/23 04:58:41;;;;;;;;;10.67;10.67;;;;;;;;4902436;28;45400;-65
2022/09/23 05:01:07;;;;;;;;;10.33;10.00;;;;;;;;4902347;28;45389;-66
2022/09/23 05:03:34;;;;;;;;;52.00;42.67;;;;;;;;4902472;29;45309;-67
2022/09/23 05:05:59;;;;;;;;;18.33;18.33;;;;;;;;4902118;28;45218;-67
2022/09/23 05:08:25;;;;;;;;;19.00;14.00;;;;;;;;4906897;28;45495;-67
2022/09/23 05:10:55;;;;;;;;;17.33;17.33;;;;;;;;4904819;28;45276;-67
2022/09/23 05:13:20;;;;;;;;;12.33;11.00;;;;;;;;4902437;28;45417;-68
2022/09/23 05:15:45;;;;;;;;;12.33;12.00;;;;;;;;4902408;28;45424;-68
2022/09/23 05:18:10;;;;;;;;;10.33;10.33;;;;;;;;4902140;28;45504;-69
2022/09/23 05:20:35;;;;;;;;;14.00;13.00;;;;;;;;4902375;28;45396;-67
2022/09/23 05:23:01;;;;;;;;;16.00;13.00;;;;;;;;4909497;28;45411;-67
2022/09/23 05:25:26;;;;;;;;;11.67;11.00;;;;;;;;4920655;28;45535;-67
2022/09/23 05:27:51;;;;;;;;;11.67;11.67;;;;;;;;4918427;28;45437;-68
2022/09/23 05:30:16;;;;;;;;;15.33;12.33;;;;;;;;4901306;28;45420;-68
2022/09/23 05:32:41;;;;;;;;;17.00;15.00;;;;;;;;4901195;29;45291;-68
2022/09/23 05:35:07;;;;;;;;;15.00;13.00;;;;;;;;4901994;29;45332;-68
2022/09/23 05:37:32;;;;;;;;;13.67;11.00;;;;;;;;4901793;29;45288;-70
2022/09/23 05:39:57;;;;;;;;;13.00;13.00;;;;;;;;4902018;28;45448;-70
2022/09/23 05:42:22;;;;;;;;;27.67;24.67;;;;;;;;4902014;29;45491;-70
2022/09/23 05:44:48;;;;;;;;;14.00;13.67;;;;;;;;4901931;29;45608;-68
2022/09/23 05:47:13;;;;;;;;;16.67;12.33;;;;;;;;4901610;29;45328;-71
2022/09/23 05:49:38;;;;;;;;;14.00;11.67;;;;;;;;4901807;29;45449;-70
2022/09/23 05:52:04;;;;;;;;;15.00;15.00;;;;;;;;4902999;28;45347;-70
2022/09/23 05:54:29;;;;;;;;;12.67;12.33;;;;;;;;4901577;28;46134;-67
2022/09/23 05:56:54;;;;;;;;;24.33;22.00;;;;;;;;4901711;29;45171;-70
2022/09/23 05:59:19;;;;;;;;;17.33;15.00;;;;;;;;4901826;29;45209;-69
2022/09/23 06:01:45;;;;;;;;;13.00;13.00;;;;;;;;4901825;29;45299;-69
2022/09/23 06:04:11;;;;;;;;;14.33;13.00;;;;;;;;4900728;29;45632;-69
2022/09/23 06:06:37;;;;;;;;;13.33;11.33;;;;;;;;4901441;29;45320;-69
2022/09/23 06:09:03;;;;;;;;;11.67;11.00;;;;;;;;4907427;28;45282;-70
2022/09/23 06:11:29;;;;;;;;;13.67;13.33;;;;;;;;4901965;29;45393;-70
2022/09/23 06:13:55;;;;;;;;;11.00;11.00;;;;;;;;4901113;29;46242;-70
2022/09/23 06:16:21;;;;;;;;;16.00;16.00;;;;;;;;4901497;29;45730;-70
2022/09/23 06:18:46;;;;;;;;;12.67;11.67;;;;;;;;4901447;29;45287;-70
2022/09/23 06:21:12;;;;;;;;;15.00;13.33;;;;;;;;4906391;28;45461;-69
2022/09/23 06:23:37;;;;;;;;;16.33;12.00;;;;;;;;4920039;28;45457;-69
2022/09/23 06:26:04;;;;;;;;;12.33;11.00;;;;;;;;4901479;28;45262;-68
2022/09/23 06:28:34;;;;;;;;;12.33;12.33;;;;;;;;4901486;29;45306;-67
2022/09/23 06:30:59;;;;;;;;;13.00;13.00;;;;;;;;4903504;28;45330;-67
2022/09/23 06:33:25;;;;;;;;;20.00;19.00;;;;;;;;4919873;28;45469;-67
2022/09/23 06:35:54;;;;;;;;;23.33;15.00;;;;;;;;4920150;28;45444;-66
2022/09/23 06:38:19;;;;;;;;;13.67;12.00;;;;;;;;4920105;28;45323;-66
2022/09/23 06:40:47;;;;;;;;;12.00;12.00;;;;;;;;4920430;28;45303;-67
2022/09/23 06:43:13;;;;;;;;;13.67;13.00;;;;;;;;4919673;28;46332;-67
2022/09/23 06:45:38;;;;;;;;;13.67;12.67;;;;;;;;4918292;28;45556;-66
2022/09/23 06:48:07;;;;;;;;;14.00;13.00;;;;;;;;4920202;28;45291;-67
2022/09/23 06:50:32;;;;;;;;;9.33;9.00;;;;;;;;4920170;28;45322;-66
2022/09/23 06:52:58;;;;;;;;;12.33;12.33;;;;;;;;4919974;28;45936;-67
2022/09/23 06:55:23;;;;;;;;;13.33;13.33;;;;;;;;4920019;28;45693;-67
2022/09/23 06:57:49;;;;;;;;;17.33;16.67;;;;;;;;4905541;28;45425;-67
2022/09/23 07:00:14;;;;;;;;;14.33;14.33;;;;;;;;4907294;28;45513;-67
2022/09/23 07:02:40;;;;;;;;;17.00;15.00;;;;;;;;4918930;28;46505;-71
2022/09/23 07:05:06;;;;;;;;;12.67;12.33;;;;;;;;4910173;28;45698;-71
2022/09/23 07:07:31;;;;;;;;;16.00;13.00;;;;;;;;4912263;28;45375;-70
2022/09/23 07:09:57;;;;;;;;;14.33;12.00;;;;;;;;4919340;28;45372;-70
2022/09/23 07:12:22;;;;;;;;;11.00;11.00;;;;;;;;4919640;28;46410;-70
2022/09/23 07:14:47;;;;;;;;;16.33;12.67;;;;;;;;4919535;28;45427;-70
2022/09/23 07:17:12;;;;;;;;;13.33;13.00;;;;;;;;4919781;28;45206;-69
2022/09/23 07:19:38;;;;;;;;;12.67;11.00;;;;;;;;4919583;28;45556;-68
2022/09/23 07:22:04;;;;;;;;;15.33;13.67;;;;;;;;4907576;28;46334;-68
2022/09/23 07:24:29;;;;;;;;;12.00;11.67;;;;;;;;4918978;28;45460;-68
2022/09/23 07:26:54;;;;;;;;;13.67;13.67;;;;;;;;4919478;28;45334;-70
2022/09/23 07:29:19;;;;;;;;;10.33;10.33;;;;;;;;4920009;28;45364;-70
2022/09/23 07:31:45;;;;;;;;;16.33;12.33;;;;;;;;4905420;28;46694;-71
2022/09/23 07:34:11;;;;;;;;;13.67;12.67;;;;;;;;4905435;28;45329;-68
2022/09/23 07:36:39;;;;;;;;;14.33;11.33;;;;;;;;4917837;28;45493;-67
2022/09/23 07:39:05;;;;;;;;;13.00;12.67;;;;;;;;4919437;28;45456;-69
2022/09/23 07:41:31;;;;;;;;;13.00;11.00;;;;;;;;4907783;28;46714;-66
2022/09/23 07:43:57;;;;;;;;;16.00;13.33;;;;;;;;4900112;28;45257;-66
2022/09/23 07:46:24;;;;;;;;;13.67;13.00;;;;;;;;4910196;28;45447;-66
2022/09/23 07:48:49;;;;;;;;;15.33;15.33;;;;;;;;4919359;28;45528;-66
2022/09/23 07:51:20;;;;;;;;;16.00;15.67;;;;;;;;4918956;28;46146;-66
2022/09/23 07:53:50;;;;;;;;;17.00;15.00;;;;;;;;4918914;28;45462;-67
2022/09/23 07:56:17;;;;;;;;;16.33;14.00;;;;;;;;4921758;28;45478;-67
2022/09/23 07:58:43;;;;;;;;;20.67;17.33;;;;;;;;4921354;28;45395;-66
2022/09/23 08:01:09;;;;;;;;;17.00;14.67;;;;;;;;4917079;28;46383;-66
2022/09/23 08:03:34;;;;;;;;;13.00;13.00;;;;;;;;4922189;28;45387;-66
2022/09/23 08:06:06;;;;;;;;;21.33;17.00;;;;;;;;4922436;28;45283;-66
2022/09/23 08:08:31;;;;;;;;;19.00;17.67;;;;;;;;4921943;28;45417;-66
2022/09/23 08:11:03;;;;;;;;;17.00;15.33;;;;;;;;4918651;28;46031;-66
2022/09/23 08:13:29;;;;;;;;;17.33;14.33;;;;;;;;4903054;28;45253;-66
2022/09/23 08:15:54;;;;;;;;;16.67;16.67;;;;;;;;4902970;29;45345;-66
2022/09/23 08:18:20;;;;;;;;;20.33;16.33;;;;;;;;4903157;28;45381;-66
2022/09/23 08:20:46;;;;;;;;;17.00;15.33;;;;;;;;4902906;28;46047;-66
2022/09/23 08:23:13;;;;;;;;;19.33;17.00;;;;;;;;4911219;28;45345;-66
2022/09/23 08:25:39;;;;;;;;;17.67;15.67;;;;;;;;4919158;28;45419;-66
2022/09/23 08:28:04;;;;;;;;;15.00;14.33;;;;;;;;4902997;28;45457;-66
2022/09/23 08:30:29;;;;;;;;;16.67;13.33;;;;;;;;4902790;29;46641;-66
2022/09/23 08:32:55;;;;;;;;;19.00;14.33;;;;;;;;4910769;28;45443;-68
2022/09/23 08:35:20;;;;;;;;;22.67;16.67;;;;;;;;4921838;28;45556;-66
2022/09/23 08:37:45;;;;;;;;;13.67;13.00;;;;;;;;4922290;28;45359;-66
2022/09/23 08:40:10;;;;;;;;;17.00;15.33;;;;;;;;4918623;28;47264;-67
2022/09/23 08:42:38;;;;;;;;;16.33;16.33;;;;;;;;4902715;29;45441;-66
2022/09/23 08:45:04;;;;;;;;;15.33;15.33;;;;;;;;4903060;29;45306;-66
2022/09/23 08:47:45;;;;;;;;;15.67;15.67;;;;;;;;4902922;29;45367;-66
2022/09/23 08:50:11;;;;;;;;;19.33;17.67;;;;;;;;4912858;28;47356;-66
2022/09/23 08:52:39;;;;;;;;;14.67;11.00;;;;;;;;4921443;28;45297;-68
2022/09/23 08:55:04;;;;;;;;;21.33;17.00;;;;;;;;4921958;28;45379;-69
2022/09/23 08:57:32;;;;;;;;;12.67;12.33;;;;;;;;4921758;28;45334;-69
2022/09/23 08:59:59;;;;;;;;;17.33;14.33;;;;;;;;4911366;28;47380;-67
2022/09/23 09:02:24;;;;;;;;;15.33;15.00;;;;;;;;4902588;29;45324;-66
2022/09/23 09:04:53;;;;;;;;;16.67;16.67;;;;;;;;4902147;28;45469;-69
2022/09/23 09:07:21;;;;;;;;;16.00;15.67;;;;;;;;4921410;28;45524;-69
2022/09/23 09:09:53;;;;;;;;;19.33;15.67;;;;;;;;4912106;28;45452;-69
2022/09/23 09:12:18;;;;;;;;;14.33;13.00;;;;;;;;4902279;29;45392;-69
2022/09/23 09:14:46;;;;;;;;;20.00;18.33;;;;;;;;4902257;29;45531;-69
2022/09/23 09:17:30;;;;;;;;;21.00;18.67;;;;;;;;4902378;29;45266;-69
2022/09/23 09:19:58;;;;;;;;;14.00;12.67;;;;;;;;4912593;28;46485;-69
2022/09/23 09:22:26;;;;;;;;;18.67;17.67;;;;;;;;4920665;28;45469;-68
2022/09/23 09:24:57;;;;;;;;;16.00;12.67;;;;;;;;4920965;28;45402;-67
2022/09/23 09:27:22;;;;;;;;;16.00;11.67;;;;;;;;4921240;28;45498;-69
2022/09/23 09:29:52;;;;;;;;;14.00;12.33;;;;;;;;4921089;28;46292;-69
2022/09/23 09:32:23;;;;;;;;;17.33;17.33;;;;;;;;4917073;28;45242;-69
2022/09/23 09:34:53;;;;;;;;;13.00;12.00;;;;;;;;4901644;28;45435;-67
2022/09/23 09:37:38;;;;;;;;;10.00;9.00;;;;;;;;4901892;29;45564;-66
2022/09/23 09:40:03;;;;;;;;;13.33;11.67;;;;;;;;4901273;29;45448;-67
2022/09/23 09:42:39;;;;;;;;;14.00;9.67;;;;;;;;4901731;29;45426;-67
2022/09/23 09:45:18;;;;;;;;;12.00;11.00;;;;;;;;4901818;29;45378;-67
2022/09/23 09:47:46;;;;;;;;;14.00;10.67;;;;;;;;4901827;29;45327;-67
2022/09/23 09:50:20;;;;;;;;;13.33;12.00;;;;;;;;4901188;29;46038;-67
2022/09/23 09:52:49;;;;;;;;;15.00;12.00;;;;;;;;4901520;29;45220;-67
2022/09/23 09:55:14;;;;;;;;;11.00;10.00;;;;;;;;4902705;28;45526;-67
2022/09/23 09:57:45;;;;;;;;;11.67;11.67;;;;;;;;4901872;29;45340;-67
2022/09/23 10:00:26;;;;;;;;;14.33;12.67;;;;;;;;4901529;29;47438;-68
2022/09/23 10:02:52;;;;;;;;;11.33;9.67;;;;;;;;4901322;29;45768;-68
2022/09/23 10:05:24;;;;;;;;;12.33;12.33;;;;;;;;4901504;29;45235;-67
2022/09/23 10:07:50;;;;;;;;;15.00;11.33;;;;;;;;4901190;29;45453;-68
2022/09/23 10:10:20;;;;;;;;;13.33;12.00;;;;;;;;4901116;29;45556;-69
2022/09/23 10:12:48;;;;;;;;;15.67;12.67;;;;;;;;4900970;28;45450;-67
2022/09/23 10:15:32;;;;;;;;;16.00;12.33;;;;;;;;4884431;29;45321;-69
2022/09/23 10:18:00;;;;;;;;;11.67;11.33;;;;;;;;4899159;29;45397;-67
2022/09/23 10:20:25;;;;;;;;;13.00;11.67;;;;;;;;4898961;29;47045;-67
2022/09/23 10:22:51;;;;;;;;;13.33;12.00;;;;;;;;4904632;28;45481;-68
2022/09/23 10:25:23;;;;;;;;;13.33;12.00;;;;;;;;4903985;28;45446;-68
2022/09/23 10:27:48;;;;;;;;;12.67;10.67;;;;;;;;4915839;28;45545;-67
2022/09/23 10:30:13;;;;;;;;;15.00;14.00;;;;;;;;4900124;28;46529;-67
2022/09/23 10:32:44;;;;;;;;;12.33;11.67;;;;;;;;4899714;28;45410;-67
2022/09/23 10:35:15;;;;;;;;;15.67;11.67;;;;;;;;4918290;28;45251;-67
2022/09/23 10:37:40;;;;;;;;;9.67;9.33;;;;;;;;4903897;28;45533;-67
2022/09/23 10:46:37;;;;;;;;;12.67;9.67;;;;;;;;4860754;29;45514;-68
2022/09/23 10:49:08;;;;;;;;;10.00;10.00;;;;;;;;4856160;29;45554;-70
2022/09/23 10:51:39;;;;;;;;;13.67;10.00;;;;;;;;4857746;29;46581;-68
2022/09/23 10:54:26;;;;;;;;;11.33;11.00;;;;;;;;4860482;29;45453;-69
2022/09/23 10:56:53;;;;;;;;;12.67;9.67;;;;;;;;4859564;29;45594;-69
2022/09/23 10:59:34;;;;;;;;;14.00;11.00;;;;;;;;4866853;29;45503;-69
2022/09/23 11:02:04;;;;;;;;;11.00;8.33;;;;;;;;4860039;29;45487;-70
2022/09/23 11:04:50;;;;;;;;;12.00;11.00;;;;;;;;4841347;29;45630;-69
2022/09/23 11:07:16;;;;;;;;;10.67;10.67;;;;;;;;4841606;29;45497;-69
2022/09/23 11:09:47;;;;;;;;;11.00;9.00;;;;;;;;4841925;29;45419;-69
2022/09/23 11:12:18;;;;;;;;;11.00;10.33;;;;;;;;4841421;29;45555;-69
2022/09/23 11:14:54;;;;;;;;;9.33;7.67;;;;;;;;4845472;29;45509;-69
2022/09/23 11:17:38;;;;;;;;;11.67;8.00;;;;;;;;4860362;29;45423;-69
2022/09/23 11:20:22;;;;;;;;;8.00;8.00;;;;;;;;4891447;28;45473;-69
2022/09/23 11:23:17;;;;;;;;;8.00;8.00;;;;;;;;4918732;28;45612;-68
2022/09/23 11:25:52;;;;;;;;;9.00;8.67;;;;;;;;4918628;28;45922;-69
2022/09/23 11:28:36;;;;;;;;;10.67;10.00;;;;;;;;4918941;28;45246;-69
2022/09/23 11:31:05;;;;;;;;;11.33;8.67;;;;;;;;4921062;28;45405;-69
2022/09/23 11:33:48;;;;;;;;;10.00;7.00;;;;;;;;4921956;28;46612;-69
2022/09/23 11:36:34;;;;;;;;;11.33;8.67;;;;;;;;4921767;28;45427;-69
2022/09/23 11:39:01;;;;;;;;;7.67;7.00;;;;;;;;4908365;28;45347;-68
2022/09/23 11:41:28;;;;;;;;;9.00;9.00;;;;;;;;4922373;28;45452;-69
2022/09/23 11:43:57;;;;;;;;;19.33;13.00;;;;;;;;4921643;28;46211;-69
2022/09/23 11:46:34;;;;;;;;;13.67;11.33;;;;;;;;4921876;28;45411;-70
2022/09/23 11:49:15;;;;;;;;;13.00;12.33;;;;;;;;4921869;28;45229;-70
2022/09/23 11:51:43;;;;;;;;;12.33;8.00;;;;;;;;4921870;28;45373;-69
2022/09/23 11:54:19;;;;;;;;;11.00;11.00;;;;;;;;4921675;28;47108;-70
2022/09/23 11:56:45;;;;;;;;;10.67;8.33;;;;;;;;4921665;28;45491;-69
2022/09/23 11:59:11;;;;;;;;;10.67;7.67;;;;;;;;4921934;28;45385;-70
2022/09/23 12:01:40;;;;;;;;;13.00;12.67;;;;;;;;4921976;28;45257;-70
2022/09/23 12:04:09;;;;;;;;;14.00;12.67;;;;;;;;4921526;28;46533;-69
2022/09/23 12:06:44;;;;;;;;;11.67;8.33;;;;;;;;4921580;28;45731;-69
2022/09/23 12:09:26;;;;;;;;;12.67;10.67;;;;;;;;4921628;28;45345;-69
2022/09/23 12:12:15;;;;;;;;;12.00;11.00;;;;;;;;4921554;28;45520;-69
2022/09/23 12:14:57;;;;;;;;;14.00;11.33;;;;;;;;4908601;28;45560;-69
2022/09/23 12:17:35;;;;;;;;;9.67;9.33;;;;;;;;4921423;28;45462;-70
2022/09/23 12:20:08;;;;;;;;;7.00;7.00;;;;;;;;4921168;28;45409;-70
2022/09/23 12:22:51;;;;;;;;;11.33;11.33;;;;;;;;4921686;28;45532;-70
2022/09/23 12:25:22;;;;;;;;;12.67;9.33;;;;;;;;4921336;28;46100;-70
2022/09/23 12:27:50;;;;;;;;;17.00;13.67;;;;;;;;4920987;28;45389;-70
2022/09/23 12:30:24;;;;;;;;;14.67;13.67;;;;;;;;4921421;28;45438;-70
2022/09/23 12:32:49;;;;;;;;;11.67;11.67;;;;;;;;4921566;28;45479;-70
2022/09/23 12:35:31;;;;;;;;;13.33;13.33;;;;;;;;4920896;28;46503;-70
2022/09/23 12:37:58;;;;;;;;;12.00;10.67;;;;;;;;4921065;28;45357;-70
2022/09/23 12:40:31;;;;;;;;;20.33;18.00;;;;;;;;4921204;28;45375;-70
2022/09/23 12:43:00;;;;;;;;;14.00;12.33;;;;;;;;4921298;28;45501;-70
2022/09/23 12:45:32;;;;;;;;;13.33;11.67;;;;;;;;4920845;28;46231;-69
2022/09/23 12:47:58;;;;;;;;;12.00;11.00;;;;;;;;4920820;28;45428;-70
2022/09/23 12:50:41;;;;;;;;;16.00;10.33;;;;;;;;4920831;28;45433;-69
2022/09/23 12:53:25;;;;;;;;;17.00;12.00;;;;;;;;4921099;28;45487;-69
2022/09/23 12:55:52;;;;;;;;;14.00;12.67;;;;;;;;4920552;28;45705;-69
2022/09/23 12:58:47;;;;;;;;;10.67;10.67;;;;;;;;4921847;28;45308;-69
2022/09/23 13:01:12;;;;;;;;;14.67;12.67;;;;;;;;4900002;28;45450;-69
2022/09/23 13:06:38;;;;;;;;;12.67;12.67;;;;;;;;4920725;28;45428;-70
2022/09/23 13:09:25;;;;;;;;;11.00;10.67;;;;;;;;4920548;28;45542;-71
2022/09/23 13:11:52;;;;;;;;;13.67;11.67;;;;;;;;4920671;28;45383;-69
2022/09/23 13:14:20;;;;;;;;;12.33;9.00;;;;;;;;4920830;28;45331;-68
2022/09/23 13:16:46;;;;;;;;;14.67;13.00;;;;;;;;4920510;28;46654;-68
2022/09/23 13:19:26;;;;;;;;;8.00;8.00;;;;;;;;4920521;28;45397;-68
2022/09/23 13:22:01;;;;;;;;;11.67;11.67;;;;;;;;4920427;28;45409;-69
2022/09/23 13:24:32;;;;;;;;;12.33;11.67;;;;;;;;4938951;28;45759;-68
2022/09/23 13:26:59;;;;;;;;;13.00;12.67;;;;;;;;4922375;28;46453;-69
2022/09/23 13:29:32;;;;;;;;;12.33;12.33;;;;;;;;4920256;28;45433;-69
2022/09/23 13:31:58;;;;;;;;;14.00;11.33;;;;;;;;4920302;28;45436;-69
2022/09/23 13:34:25;;;;;;;;;14.33;14.00;;;;;;;;4920262;28;45444;-69
2022/09/23 13:36:52;;;;;;;;;14.67;12.00;;;;;;;;4919933;28;45374;-70
2022/09/23 13:39:27;;;;;;;;;15.00;13.67;;;;;;;;4918423;28;45539;-68
2022/09/23 13:41:55;;;;;;;;;12.67;9.67;;;;;;;;4919589;28;45370;-69
2022/09/23 13:44:20;;;;;;;;;33.67;31.33;;;;;;;;4919345;28;45398;-68
2022/09/23 13:46:47;;;;;;;;;10.67;8.00;;;;;;;;4919317;28;46968;-68
2022/09/23 13:49:21;;;;;;;;;9.00;9.00;;;;;;;;4913505;28;45431;-68
2022/09/23 13:51:46;;;;;;;;;9.33;9.33;;;;;;;;4900946;28;45353;-68
2022/09/23 13:54:27;;;;;;;;;12.67;10.33;;;;;;;;4907441;28;45603;-70
2022/09/23 13:56:52;;;;;;;;;10.67;9.00;;;;;;;;4919325;28;46558;-69
2022/09/23 13:59:27;;;;;;;;;13.33;11.67;;;;;;;;4919555;28;45488;-69
2022/09/23 14:02:02;;;;;;;;;14.33;12.00;;;;;;;;4917745;28;45469;-69
2022/09/23 14:04:28;;;;;;;;;26.00;20.00;;;;;;;;4918974;28;45407;-69
2022/09/23 14:06:54;;;;;;;;;10.33;8.33;;;;;;;;4917779;28;45639;-69
2022/09/23 14:09:21;;;;;;;;;11.33;10.33;;;;;;;;4916547;28;45383;-68
2022/09/23 14:11:48;;;;;;;;;12.33;9.00;;;;;;;;4917822;28;45538;-69
2022/09/23 14:14:14;;;;;;;;;9.33;9.33;;;;;;;;4915378;28;45913;-68
2022/09/23 14:16:40;;;;;;;;;12.67;9.00;;;;;;;;4917118;28;46352;-69
2022/09/23 14:19:06;;;;;;;;;15.33;14.33;;;;;;;;4912750;28;45548;-69
2022/09/23 14:21:36;;;;;;;;;12.33;12.33;;;;;;;;4913505;28;45517;-69
2022/09/23 14:24:24;;;;;;;;;13.33;11.67;;;;;;;;4898923;28;45441;-70
2022/09/23 14:26:55;;;;;;;;;13.33;12.67;;;;;;;;4860464;29;47198;-69
2022/09/23 14:29:31;;;;;;;;;11.67;10.00;;;;;;;;4858179;29;45503;-69
2022/09/23 14:32:02;;;;;;;;;11.67;11.67;;;;;;;;4858642;29;45575;-68
2022/09/23 14:34:47;;;;;;;;;21.00;18.00;;;;;;;;4858520;29;45503;-68
2022/09/23 14:39:59;;;;;;;;;11.33;10.67;;;;;;;;4852059;29;45304;-69
2022/09/23 14:42:25;;;;;;;;;12.00;12.00;;;;;;;;4860131;29;47203;-68
2022/09/23 14:44:50;;;;;;;;;14.00;11.33;;;;;;;;4858474;29;45765;-70
2022/09/23 14:47:15;;;;;;;;;12.67;12.67;;;;;;;;4856811;29;46630;-69
2022/09/23 14:50:35;;;;;;;;;9.33;9.33;;;;;;;;4858279;29;45578;-69